Time;durP1;ratioP1;P1;durP2;ratioP2;P2;SDS_P1;SDS_P2;PMS_P1;PMS_P2;Temp;Humidity;BMP_temperature;BMP_pressure;BME280_temperature;BME280_humidity;BME280_pressure;Samples;Min_cycle;Max_cycle;Signal;HPM_P1;HPM_P2
2020/07/21 00:02:27;;;;;;;2.74;2.54;;;;;;;21.66;64.68;100727.05;;;;-57
2020/07/21 00:05:28;;;;;;;2.85;2.65;;;;;;;21.66;64.74;100728.67;;;;-57
2020/07/21 00:08:28;;;;;;;2.84;2.54;;;;;;;21.65;64.82;100731.71;;;;-63
2020/07/21 00:11:27;;;;;;;2.86;2.57;;;;;;;21.66;64.78;100736.59;;;;-63
2020/07/21 00:14:27;;;;;;;2.67;2.45;;;;;;;21.65;64.69;100733.42;;;;-62
2020/07/21 00:17:27;;;;;;;2.58;2.38;;;;;;;21.64;64.73;100732.62;;;;-63
2020/07/21 00:20:27;;;;;;;2.63;2.33;;;;;;;21.64;64.72;100734.55;;;;-63
2020/07/21 00:23:27;;;;;;;3.25;2.30;;;;;;;21.63;64.71;100740.11;;;;-63
2020/07/21 00:26:27;;;;;;;2.46;2.26;;;;;;;21.64;64.66;100742.78;;;;-64
2020/07/21 00:29:27;;;;;;;2.59;2.39;;;;;;;21.63;64.73;100736.52;;;;-62
2020/07/21 00:32:27;;;;;;;2.56;2.36;;;;;;;21.63;64.77;100738.39;;;;-63
2020/07/21 00:35:27;;;;;;;2.52;2.32;;;;;;;21.63;64.73;100739.55;;;;-63
2020/07/21 00:38:27;;;;;;;2.47;2.27;;;;;;;21.62;64.77;100740.34;;;;-63
2020/07/21 00:41:27;;;;;;;2.83;2.37;;;;;;;21.62;64.70;100741.48;;;;-62
2020/07/21 00:44:27;;;;;;;2.38;2.15;;;;;;;21.61;64.77;100735.20;;;;-63
2020/07/21 00:47:27;;;;;;;2.46;2.26;;;;;;;21.60;64.68;100727.06;;;;-63
2020/07/21 00:50:27;;;;;;;2.41;2.20;;;;;;;21.60;64.73;100726.41;;;;-62
2020/07/21 00:53:27;;;;;;;2.70;2.25;;;;;;;21.60;64.76;100724.59;;;;-62
2020/07/21 00:56:27;;;;;;;2.67;2.30;;;;;;;21.59;64.74;100721.02;;;;-62
2020/07/21 00:59:27;;;;;;;2.89;2.42;;;;;;;21.59;64.72;100728.59;;;;-64
2020/07/21 01:02:27;;;;;;;2.52;2.30;;;;;;;21.58;64.72;100735.13;;;;-63
2020/07/21 01:05:27;;;;;;;2.53;2.33;;;;;;;21.58;64.72;100730.16;;;;-63
2020/07/21 01:08:27;;;;;;;2.32;2.12;;;;;;;21.58;64.81;100726.65;;;;-64
2020/07/21 01:11:27;;;;;;;2.41;2.21;;;;;;;21.58;64.76;100732.66;;;;-63
2020/07/21 01:14:27;;;;;;;3.08;2.30;;;;;;;21.58;64.69;100737.88;;;;-62
2020/07/21 01:17:27;;;;;;;2.55;2.35;;;;;;;21.58;64.71;100735.03;;;;-64
2020/07/21 01:20:27;;;;;;;2.29;2.09;;;;;;;21.57;64.73;100732.09;;;;-62
2020/07/21 01:23:27;;;;;;;3.15;2.20;;;;;;;21.57;64.81;100732.67;;;;-64
2020/07/21 01:26:28;;;;;;;2.41;2.21;;;;;;;21.57;64.79;100740.09;;;;-63
2020/07/21 01:29:27;;;;;;;2.59;2.39;;;;;;;21.56;64.72;100739.37;;;;-63
2020/07/21 01:35:44;;;;;;;2.40;2.20;;;;;;;21.56;64.77;100741.79;;;;-62
2020/07/21 01:38:44;;;;;;;2.35;2.15;;;;;;;21.56;64.69;100738.94;;;;-62
2020/07/21 01:41:44;;;;;;;2.33;2.13;;;;;;;21.56;64.79;100741.87;;;;-62
2020/07/21 01:44:44;;;;;;;2.56;2.30;;;;;;;21.55;64.72;100741.48;;;;-62
2020/07/21 01:47:44;;;;;;;2.11;2.01;;;;;;;21.55;64.77;100742.78;;;;-62
2020/07/21 01:50:44;;;;;;;2.53;2.09;;;;;;;21.55;64.81;100741.23;;;;-62
2020/07/21 01:53:44;;;;;;;2.37;2.17;;;;;;;21.55;64.71;100740.66;;;;-62
2020/07/21 01:56:44;;;;;;;2.30;2.10;;;;;;;21.54;64.74;100744.72;;;;-61
2020/07/21 01:59:44;;;;;;;2.33;2.13;;;;;;;21.54;64.78;100748.96;;;;-62
2020/07/21 02:02:44;;;;;;;2.55;2.20;;;;;;;21.53;64.66;100750.44;;;;-61
2020/07/21 02:05:44;;;;;;;2.30;2.10;;;;;;;21.54;64.72;100750.27;;;;-62
2020/07/21 02:08:44;;;;;;;2.43;2.01;;;;;;;21.53;64.73;100748.64;;;;-62
2020/07/21 02:11:44;;;;;;;2.30;2.10;;;;;;;21.54;64.72;100750.84;;;;-63
2020/07/21 02:14:44;;;;;;;2.10;2.00;;;;;;;21.53;64.66;100754.44;;;;-62
2020/07/21 02:17:44;;;;;;;2.39;2.19;;;;;;;21.53;64.74;100753.05;;;;-62
2020/07/21 02:20:44;;;;;;;2.31;2.11;;;;;;;21.52;64.78;100749.55;;;;-62
2020/07/21 02:23:44;;;;;;;2.14;1.97;;;;;;;21.53;64.67;100756.15;;;;-62
2020/07/21 02:26:44;;;;;;;3.23;2.20;;;;;;;21.52;64.76;100754.04;;;;-62
2020/07/21 02:29:44;;;;;;;2.38;2.18;;;;;;;21.52;64.76;100753.12;;;;-62
2020/07/21 02:32:44;;;;;;;1.99;1.82;;;;;;;21.52;64.78;100754.98;;;;-62
2020/07/21 02:35:44;;;;;;;2.20;2.00;;;;;;;21.51;64.67;100754.02;;;;-61
2020/07/21 02:38:44;;;;;;;2.16;1.99;;;;;;;21.51;64.67;100750.10;;;;-61
2020/07/21 02:41:44;;;;;;;2.28;2.05;;;;;;;21.51;64.76;100748.08;;;;-61
2020/07/21 02:44:44;;;;;;;2.28;2.08;;;;;;;21.50;64.74;100747.67;;;;-63
2020/07/21 02:47:44;;;;;;;2.32;2.12;;;;;;;21.50;64.67;100751.42;;;;-61
2020/07/21 02:50:44;;;;;;;2.39;2.18;;;;;;;21.50;64.66;100753.84;;;;-61
2020/07/21 02:53:44;;;;;;;2.41;2.21;;;;;;;21.50;64.63;100756.31;;;;-62
2020/07/21 02:56:44;;;;;;;2.00;1.90;;;;;;;21.49;64.65;100755.08;;;;-61
2020/07/21 02:59:44;;;;;;;2.26;2.10;;;;;;;21.50;64.66;100745.47;;;;-62
2020/07/21 03:02:44;;;;;;;2.00;1.90;;;;;;;21.50;64.69;100751.50;;;;-62
2020/07/21 03:05:44;;;;;;;2.18;1.98;;;;;;;21.48;64.68;100755.41;;;;-62
2020/07/21 03:08:44;;;;;;;2.13;1.97;;;;;;;21.49;64.67;100759.73;;;;-63
2020/07/21 03:11:44;;;;;;;2.06;1.91;;;;;;;21.49;64.74;100762.50;;;;-62
2020/07/21 03:14:44;;;;;;;2.18;2.02;;;;;;;21.48;64.66;100761.36;;;;-62
2020/07/21 03:17:44;;;;;;;2.11;2.01;;;;;;;21.48;64.71;100765.03;;;;-62
2020/07/21 03:20:44;;;;;;;2.20;1.99;;;;;;;21.48;64.72;100768.79;;;;-61
2020/07/21 03:23:44;;;;;;;2.18;1.98;;;;;;;21.48;64.64;100772.92;;;;-63
2020/07/21 03:26:44;;;;;;;2.46;2.06;;;;;;;21.48;64.63;100771.64;;;;-62
2020/07/21 03:29:44;;;;;;;1.91;1.81;;;;;;;21.47;64.68;100767.79;;;;-61
2020/07/21 03:32:44;;;;;;;2.07;1.95;;;;;;;21.47;64.65;100771.38;;;;-62
2020/07/21 03:35:44;;;;;;;2.00;1.87;;;;;;;21.47;64.56;100772.11;;;;-63
2020/07/21 03:38:44;;;;;;;2.14;1.94;;;;;;;21.47;64.65;100771.38;;;;-61
2020/07/21 03:41:44;;;;;;;2.10;1.97;;;;;;;21.46;64.70;100775.47;;;;-62
2020/07/21 03:44:44;;;;;;;2.77;1.97;;;;;;;21.46;64.64;100773.75;;;;-61
2020/07/21 03:47:44;;;;;;;2.19;1.99;;;;;;;21.45;64.62;100776.42;;;;-62
2020/07/21 03:50:44;;;;;;;2.00;1.90;;;;;;;21.45;64.71;100778.54;;;;-62
2020/07/21 03:53:44;;;;;;;2.00;1.90;;;;;;;21.46;64.66;100782.20;;;;-62
2020/07/21 03:56:44;;;;;;;2.02;1.89;;;;;;;21.45;64.71;100777.64;;;;-62
2020/07/21 03:59:44;;;;;;;2.00;1.90;;;;;;;21.45;64.71;100778.95;;;;-61
2020/07/21 04:02:44;;;;;;;2.05;1.91;;;;;;;21.45;64.67;100782.46;;;;-62
2020/07/21 04:05:44;;;;;;;2.00;1.90;;;;;;;21.44;64.72;100780.84;;;;-62
2020/07/21 04:08:44;;;;;;;1.96;1.86;;;;;;;21.45;64.66;100780.42;;;;-62
2020/07/21 04:11:44;;;;;;;2.00;1.90;;;;;;;21.43;64.71;100777.32;;;;-63
2020/07/21 04:14:44;;;;;;;1.87;1.77;;;;;;;21.43;64.66;100780.83;;;;-63
2020/07/21 04:17:44;;;;;;;2.09;1.87;;;;;;;21.43;64.67;100780.98;;;;-62
2020/07/21 04:20:44;;;;;;;2.08;1.98;;;;;;;21.42;64.65;100789.23;;;;-61
2020/07/21 04:23:44;;;;;;;2.22;2.00;;;;;;;21.42;64.68;100792.70;;;;-62
2020/07/21 04:26:44;;;;;;;1.90;1.80;;;;;;;21.43;64.71;100793.47;;;;-61
2020/07/21 04:29:44;;;;;;;2.03;1.91;;;;;;;21.42;64.57;100794.61;;;;-62
2020/07/21 04:32:44;;;;;;;1.98;1.81;;;;;;;21.41;64.69;100792.28;;;;-63
2020/07/21 04:35:44;;;;;;;1.93;1.83;;;;;;;21.42;64.68;100791.48;;;;-62
2020/07/21 04:38:44;;;;;;;1.95;1.85;;;;;;;21.41;64.67;100795.38;;;;-61
2020/07/21 04:41:44;;;;;;;1.91;1.81;;;;;;;21.40;64.59;100794.41;;;;-63
2020/07/21 04:44:44;;;;;;;1.87;1.75;;;;;;;21.40;64.66;100794.89;;;;-62
2020/07/21 04:47:44;;;;;;;1.89;1.79;;;;;;;21.40;64.68;100791.47;;;;-62
2020/07/21 04:50:44;;;;;;;1.85;1.69;;;;;;;21.40;64.70;100792.54;;;;-61
2020/07/21 04:53:44;;;;;;;2.13;2.03;;;;;;;21.40;64.63;100795.39;;;;-62
2020/07/21 04:56:44;;;;;;;2.01;1.91;;;;;;;21.40;64.66;100797.92;;;;-62
2020/07/21 04:59:44;;;;;;;2.21;2.01;;;;;;;21.39;64.56;100798.00;;;;-62
2020/07/21 05:02:44;;;;;;;2.09;1.89;;;;;;;21.39;64.69;100796.53;;;;-62
2020/07/21 05:05:44;;;;;;;1.91;1.81;;;;;;;21.39;64.62;100804.69;;;;-62
2020/07/21 05:08:44;;;;;;;1.93;1.83;;;;;;;21.39;64.72;100810.30;;;;-62
2020/07/21 05:11:44;;;;;;;1.90;1.80;;;;;;;21.39;64.68;100814.69;;;;-61
2020/07/21 05:14:44;;;;;;;2.07;1.96;;;;;;;21.39;64.57;100818.20;;;;-63
2020/07/21 05:17:44;;;;;;;2.14;1.97;;;;;;;21.38;64.62;100820.16;;;;-61
2020/07/21 05:20:44;;;;;;;2.14;2.00;;;;;;;21.39;64.67;100826.76;;;;-62
2020/07/21 05:23:44;;;;;;;2.00;1.90;;;;;;;21.39;64.60;100822.27;;;;-63
2020/07/21 05:26:44;;;;;;;2.19;2.00;;;;;;;21.38;64.53;100824.81;;;;-63
2020/07/21 05:29:44;;;;;;;2.10;1.90;;;;;;;21.38;64.62;100827.34;;;;-64
2020/07/21 05:32:44;;;;;;;2.14;1.96;;;;;;;21.38;64.64;100833.94;;;;-64
2020/07/21 05:35:44;;;;;;;2.00;1.90;;;;;;;21.38;64.60;100833.70;;;;-63
2020/07/21 05:38:44;;;;;;;2.06;1.90;;;;;;;21.38;64.53;100842.26;;;;-62
2020/07/21 05:41:44;;;;;;;2.29;2.09;;;;;;;21.38;64.47;100841.20;;;;-61
2020/07/21 05:44:44;;;;;;;2.26;1.88;;;;;;;21.37;64.55;100840.72;;;;-62
2020/07/21 05:47:44;;;;;;;2.09;1.90;;;;;;;21.38;64.49;100843.56;;;;-62
2020/07/21 05:50:44;;;;;;;2.01;1.91;;;;;;;21.37;64.48;100843.70;;;;-63
2020/07/21 05:53:44;;;;;;;2.47;2.05;;;;;;;21.37;64.49;100840.28;;;;-62
2020/07/21 05:56:44;;;;;;;2.11;1.90;;;;;;;21.37;64.52;100839.63;;;;-62
2020/07/21 05:59:44;;;;;;;1.91;1.79;;;;;;;21.37;64.56;100846.80;;;;-62
2020/07/21 06:02:44;;;;;;;2.13;1.99;;;;;;;21.37;64.46;100848.77;;;;-62
2020/07/21 06:05:44;;;;;;;2.23;2.01;;;;;;;21.37;64.46;100852.19;;;;-62
2020/07/21 06:08:44;;;;;;;2.00;1.90;;;;;;;21.36;64.45;100857.41;;;;-63
2020/07/21 06:11:44;;;;;;;2.28;1.91;;;;;;;21.36;64.43;100862.30;;;;-61
2020/07/21 06:14:44;;;;;;;2.47;2.03;;;;;;;21.36;64.43;100864.09;;;;-62
2020/07/21 06:17:44;;;;;;;2.09;1.96;;;;;;;21.36;64.49;100867.36;;;;-62
2020/07/21 06:20:44;;;;;;;2.00;1.90;;;;;;;21.36;64.52;100868.83;;;;-63
2020/07/21 06:23:44;;;;;;;1.96;1.86;;;;;;;21.36;64.47;100869.16;;;;-62
2020/07/21 06:26:44;;;;;;;2.20;2.00;;;;;;;21.36;64.45;100869.32;;;;-61
2020/07/21 06:29:44;;;;;;;2.02;1.82;;;;;;;21.35;64.43;100875.66;;;;-63
2020/07/21 06:32:44;;;;;;;1.95;1.85;;;;;;;21.36;64.43;100876.83;;;;-61
2020/07/21 06:35:44;;;;;;;1.81;1.71;;;;;;;21.36;64.41;100883.02;;;;-61
2020/07/21 06:38:44;;;;;;;2.13;1.89;;;;;;;21.35;64.38;100882.17;;;;-63
2020/07/21 06:41:44;;;;;;;1.92;1.82;;;;;;;21.36;64.51;100883.91;;;;-62
2020/07/21 06:44:44;;;;;;;2.17;1.98;;;;;;;21.35;64.36;100883.81;;;;-63
2020/07/21 06:47:44;;;;;;;1.91;1.81;;;;;;;21.35;64.41;100881.61;;;;-62
2020/07/21 06:50:44;;;;;;;1.95;1.84;;;;;;;21.35;64.40;100885.44;;;;-62
2020/07/21 06:53:44;;;;;;;1.95;1.85;;;;;;;21.35;64.35;100887.88;;;;-62
2020/07/21 06:56:44;;;;;;;2.11;1.91;;;;;;;21.35;64.35;100895.06;;;;-62
2020/07/21 06:59:44;;;;;;;1.87;1.77;;;;;;;21.35;64.39;100885.69;;;;-61
2020/07/21 07:02:44;;;;;;;2.01;1.91;;;;;;;21.35;64.35;100891.15;;;;-63
2020/07/21 07:05:44;;;;;;;1.90;1.80;;;;;;;21.34;64.35;100891.56;;;;-61
2020/07/21 07:08:44;;;;;;;1.95;1.80;;;;;;;21.34;64.33;100891.56;;;;-62
2020/07/21 07:11:44;;;;;;;1.92;1.80;;;;;;;21.34;64.43;100891.39;;;;-61
2020/07/21 07:14:44;;;;;;;1.93;1.83;;;;;;;21.34;64.31;100888.63;;;;-62
2020/07/21 07:17:44;;;;;;;1.86;1.76;;;;;;;21.34;64.37;100894.66;;;;-62
2020/07/21 07:20:44;;;;;;;2.01;1.90;;;;;;;21.34;64.25;100890.02;;;;-62
2020/07/21 07:23:44;;;;;;;1.93;1.83;;;;;;;21.33;64.40;100893.53;;;;-63
2020/07/21 07:26:44;;;;;;;1.80;1.70;;;;;;;21.34;64.37;100903.14;;;;-63
2020/07/21 07:29:44;;;;;;;1.80;1.70;;;;;;;21.34;64.33;100903.55;;;;-62
2020/07/21 07:32:44;;;;;;;1.82;1.72;;;;;;;21.34;64.41;100905.67;;;;-62
2020/07/21 07:35:44;;;;;;;1.99;1.80;;;;;;;21.33;64.36;100897.00;;;;-62
2020/07/21 07:38:44;;;;;;;2.01;1.91;;;;;;;21.33;64.30;100900.84;;;;-63
2020/07/21 07:41:44;;;;;;;1.93;1.78;;;;;;;21.33;64.27;100900.92;;;;-62
2020/07/21 07:44:44;;;;;;;1.81;1.71;;;;;;;21.33;64.33;100903.05;;;;-61
2020/07/21 07:47:44;;;;;;;3.17;1.85;;;;;;;21.34;64.39;100907.63;;;;-57
2020/07/21 07:50:44;;;;;;;4.21;1.75;;;;;;;21.34;64.38;100907.63;;;;-55
2020/07/21 07:53:44;;;;;;;2.46;2.04;;;;;;;21.35;64.47;100907.72;;;;-60
2020/07/21 07:56:44;;;;;;;1.90;1.80;;;;;;;21.37;64.27;100908.36;;;;-56
2020/07/21 07:59:44;;;;;;;2.45;1.99;;;;;;;21.38;64.27;100914.09;;;;-50
2020/07/21 08:02:44;;;;;;;2.19;1.90;;;;;;;21.39;64.22;100911.01;;;;-54
2020/07/21 08:05:44;;;;;;;1.86;1.73;;;;;;;21.41;64.22;100912.79;;;;-55
2020/07/21 08:08:44;;;;;;;2.13;1.93;;;;;;;21.43;63.90;100916.91;;;;-51
2020/07/21 08:11:44;;;;;;;2.69;1.79;;;;;;;21.46;64.39;100917.24;;;;-55
2020/07/21 08:14:44;;;;;;;3.36;1.93;;;;;;;21.46;64.41;100921.02;;;;-59
2020/07/21 08:17:44;;;;;;;2.27;2.01;;;;;;;21.48;64.48;100926.55;;;;-49
2020/07/21 08:20:44;;;;;;;2.76;1.75;;;;;;;21.49;64.43;100919.06;;;;-49
2020/07/21 08:23:44;;;;;;;2.35;1.85;;;;;;;21.49;64.54;100926.16;;;;-49
2020/07/21 08:26:44;;;;;;;2.03;1.70;;;;;;;21.51;64.49;100926.34;;;;-54
2020/07/21 08:29:44;;;;;;;2.13;1.90;;;;;;;21.53;64.53;100924.39;;;;-50
2020/07/21 08:32:44;;;;;;;3.00;1.80;;;;;;;21.52;64.50;100914.17;;;;-50
2020/07/21 08:35:44;;;;;;;2.26;1.84;;;;;;;21.53;64.57;100916.08;;;;-50
2020/07/21 08:38:44;;;;;;;2.31;1.80;;;;;;;21.52;64.46;100914.61;;;;-51
2020/07/21 08:41:44;;;;;;;3.79;1.87;;;;;;;21.52;64.43;100915.23;;;;-51
2020/07/21 08:44:53;;;;;;;3.24;1.94;;;;;;;21.53;64.33;100917.05;;;;-50
2020/07/21 08:47:44;;;;;;;2.28;1.89;;;;;;;21.52;64.34;100913.63;;;;-49
2020/07/21 08:50:44;;;;;;;2.06;1.84;;;;;;;21.52;64.30;100919.42;;;;-50
2020/07/21 08:53:44;;;;;;;2.09;1.90;;;;;;;21.52;64.30;100920.81;;;;-50
2020/07/21 08:56:44;;;;;;;2.12;1.73;;;;;;;21.51;64.36;100917.93;;;;-52
2020/07/21 08:59:44;;;;;;;2.02;1.83;;;;;;;21.52;64.27;100923.31;;;;-52
2020/07/21 09:02:44;;;;;;;2.43;1.81;;;;;;;21.52;64.20;100925.45;;;;-53
2020/07/21 09:05:44;;;;;;;3.08;1.90;;;;;;;21.52;64.27;100921.77;;;;-50
2020/07/21 09:08:44;;;;;;;2.00;1.67;;;;;;;21.52;64.19;100927.72;;;;-51
2020/07/21 09:11:44;;;;;;;2.14;1.94;;;;;;;21.52;64.29;100933.77;;;;-51
2020/07/21 09:14:44;;;;;;;2.66;1.83;;;;;;;21.52;64.20;100928.23;;;;-53
2020/07/21 09:17:44;;;;;;;2.59;1.82;;;;;;;21.52;64.19;100931.09;;;;-51
2020/07/21 09:20:44;;;;;;;2.15;1.70;;;;;;;21.52;64.11;100929.27;;;;-50
2020/07/21 09:23:44;;;;;;;1.85;1.72;;;;;;;21.52;64.08;100934.40;;;;-50
2020/07/21 09:26:44;;;;;;;1.80;1.70;;;;;;;21.51;64.15;100927.72;;;;-49
2020/07/21 09:29:44;;;;;;;2.76;1.82;;;;;;;21.52;64.04;100930.73;;;;-51
2020/07/21 09:32:44;;;;;;;2.85;1.97;;;;;;;21.51;64.04;100930.25;;;;-50
2020/07/21 09:35:44;;;;;;;1.95;1.74;;;;;;;21.51;63.99;100930.49;;;;-52
2020/07/21 09:38:44;;;;;;;1.95;1.70;;;;;;;21.52;64.05;100930.89;;;;-51
2020/07/21 09:41:44;;;;;;;2.63;1.64;;;;;;;21.52;64.05;100927.96;;;;-52
2020/07/21 09:44:44;;;;;;;2.61;1.70;;;;;;;21.51;64.06;100927.97;;;;-53
2020/07/21 09:47:44;;;;;;;2.39;1.71;;;;;;;21.51;64.05;100922.67;;;;-52
2020/07/21 09:50:44;;;;;;;3.01;1.86;;;;;;;21.50;64.13;100925.20;;;;-49
2020/07/21 09:53:44;;;;;;;1.75;1.58;;;;;;;21.52;64.20;100924.16;;;;-51
2020/07/21 09:56:44;;;;;;;1.71;1.60;;;;;;;21.54;64.31;100922.86;;;;-51
2020/07/21 09:59:44;;;;;;;1.83;1.66;;;;;;;21.55;64.38;100923.26;;;;-59
2020/07/21 10:02:44;;;;;;;3.46;1.69;;;;;;;21.55;64.31;100922.03;;;;-55
2020/07/21 10:05:44;;;;;;;1.99;1.69;;;;;;;21.56;64.37;100921.45;;;;-54
2020/07/21 10:08:44;;;;;;;3.84;1.74;;;;;;;21.55;64.25;100922.84;;;;-55
2020/07/21 10:11:44;;;;;;;2.69;1.82;;;;;;;21.56;64.28;100929.20;;;;-57
2020/07/21 10:14:43;;;;;;;3.05;1.67;;;;;;;21.56;64.31;100921.86;;;;-57
2020/07/21 10:17:44;;;;;;;2.36;1.69;;;;;;;21.57;64.25;100930.61;;;;-56
2020/07/21 10:20:44;;;;;;;2.23;1.68;;;;;;;21.57;64.22;100925.06;;;;-57
2020/07/21 10:23:44;;;;;;;3.23;1.73;;;;;;;21.57;64.26;100918.62;;;;-57
2020/07/21 10:26:44;;;;;;;5.54;1.95;;;;;;;21.59;64.29;100919.61;;;;-58
2020/07/21 10:29:44;;;;;;;3.59;1.70;;;;;;;21.61;64.26;100923.38;;;;-58
2020/07/21 10:32:44;;;;;;;3.29;1.87;;;;;;;21.60;64.35;100916.45;;;;-60
2020/07/21 10:35:44;;;;;;;4.27;1.90;;;;;;;21.63;64.32;100919.70;;;;-55
2020/07/21 10:38:44;;;;;;;2.45;1.83;;;;;;;21.63;64.31;100914.25;;;;-58
2020/07/21 10:41:44;;;;;;;3.21;1.94;;;;;;;21.63;64.25;100916.13;;;;-59
2020/07/21 10:44:44;;;;;;;3.21;1.81;;;;;;;21.64;64.26;100915.71;;;;-66
2020/07/21 10:47:44;;;;;;;2.33;1.83;;;;;;;21.63;64.27;100907.31;;;;-66
2020/07/21 10:50:44;;;;;;;3.48;1.84;;;;;;;21.62;64.35;100913.52;;;;-67
2020/07/21 10:53:44;;;;;;;2.43;1.75;;;;;;;21.63;64.26;100912.38;;;;-66
2020/07/21 10:56:44;;;;;;;2.59;1.77;;;;;;;21.63;64.17;100909.20;;;;-67
2020/07/21 10:59:44;;;;;;;2.27;1.79;;;;;;;21.62;64.27;100906.23;;;;-66
2020/07/21 11:02:44;;;;;;;4.12;1.82;;;;;;;21.61;64.13;100908.61;;;;-66
2020/07/21 11:05:43;;;;;;;2.34;1.92;;;;;;;21.61;64.23;100903.80;;;;-66
2020/07/21 11:08:43;;;;;;;2.24;1.69;;;;;;;21.61;64.17;100905.43;;;;-67
2020/07/21 11:11:44;;;;;;;2.27;1.70;;;;;;;21.61;64.19;100901.36;;;;-67
2020/07/21 11:14:44;;;;;;;2.91;1.73;;;;;;;21.61;64.18;100895.64;;;;-66
2020/07/21 11:17:44;;;;;;;4.25;1.80;;;;;;;21.60;64.19;100895.95;;;;-67
2020/07/21 11:20:44;;;;;;;2.26;1.74;;;;;;;21.60;64.12;100891.98;;;;-67
2020/07/21 11:23:44;;;;;;;2.10;1.60;;;;;;;21.60;64.07;100893.17;;;;-67
2020/07/21 11:26:44;;;;;;;2.45;1.75;;;;;;;21.60;64.04;100894.89;;;;-67
2020/07/21 11:29:44;;;;;;;2.40;1.81;;;;;;;21.59;64.14;100893.75;;;;-67
2020/07/21 11:32:44;;;;;;;2.62;1.79;;;;;;;21.59;64.13;100893.43;;;;-66
2020/07/21 11:35:43;;;;;;;3.61;1.77;;;;;;;21.59;64.14;100884.95;;;;-67
2020/07/21 11:38:44;;;;;;;3.44;1.67;;;;;;;21.59;63.99;100890.98;;;;-67
2020/07/21 11:41:44;;;;;;;2.01;1.77;;;;;;;21.59;64.09;100889.84;;;;-68
2020/07/21 11:44:44;;;;;;;1.77;1.64;;;;;;;21.59;64.02;100888.05;;;;-67
2020/07/21 11:47:44;;;;;;;2.79;1.72;;;;;;;21.58;64.00;100883.05;;;;-68
2020/07/21 11:50:43;;;;;;;3.05;1.71;;;;;;;21.59;64.06;100883.31;;;;-67
2020/07/21 11:53:44;;;;;;;2.20;1.59;;;;;;;21.58;64.02;100879.73;;;;-68
2020/07/21 11:56:43;;;;;;;1.91;1.65;;;;;;;21.58;64.02;100887.54;;;;-69
2020/07/21 11:59:44;;;;;;;1.73;1.62;;;;;;;21.58;64.01;100883.14;;;;-67
2020/07/21 12:02:44;;;;;;;2.88;1.68;;;;;;;21.58;63.94;100885.74;;;;-68
2020/07/21 12:05:44;;;;;;;1.83;1.60;;;;;;;21.58;64.02;100879.71;;;;-67
2020/07/21 12:08:44;;;;;;;1.70;1.60;;;;;;;21.58;64.02;100881.42;;;;-67
2020/07/21 12:11:44;;;;;;;3.44;1.70;;;;;;;21.58;63.93;100878.56;;;;-66
2020/07/21 12:14:44;;;;;;;3.11;1.87;;;;;;;21.57;63.95;100873.60;;;;-68
2020/07/21 12:17:44;;;;;;;1.77;1.65;;;;;;;21.57;64.04;100876.46;;;;-69
2020/07/21 12:20:44;;;;;;;2.07;1.74;;;;;;;21.56;64.00;100875.33;;;;-67
2020/07/21 12:23:44;;;;;;;4.73;1.73;;;;;;;21.57;63.96;100876.12;;;;-66
2020/07/21 12:26:44;;;;;;;2.16;1.63;;;;;;;21.56;63.97;100874.51;;;;-67
2020/07/21 12:29:44;;;;;;;2.43;1.75;;;;;;;21.56;63.90;100873.45;;;;-66
2020/07/21 12:32:44;;;;;;;2.35;1.70;;;;;;;21.56;63.96;100875.65;;;;-65
2020/07/21 12:35:44;;;;;;;2.00;1.71;;;;;;;21.56;63.94;100868.63;;;;-67
2020/07/21 12:38:44;;;;;;;1.98;1.73;;;;;;;21.57;64.03;100878.82;;;;-65
2020/07/21 12:41:44;;;;;;;2.49;1.70;;;;;;;21.57;63.98;100873.60;;;;-67
2020/07/21 12:44:44;;;;;;;1.87;1.69;;;;;;;21.57;63.85;100868.63;;;;-65
2020/07/21 12:47:44;;;;;;;2.43;1.55;;;;;;;21.57;63.96;100869.28;;;;-66
2020/07/21 12:50:43;;;;;;;3.56;1.93;;;;;;;21.58;64.03;100864.31;;;;-58
2020/07/21 12:53:43;;;;;;;5.44;1.98;;;;;;;21.59;64.07;100864.40;;;;-57
2020/07/21 12:56:44;;;;;;;3.42;1.75;;;;;;;21.60;63.97;100865.69;;;;-57
2020/07/21 12:59:44;;;;;;;2.02;1.81;;;;;;;21.60;63.85;100857.05;;;;-57
2020/07/21 13:02:44;;;;;;;3.93;1.75;;;;;;;21.60;63.90;100852.15;;;;-57
2020/07/21 13:05:44;;;;;;;6.15;1.77;;;;;;;21.60;63.96;100847.83;;;;-57
2020/07/21 13:08:44;;;;;;;3.37;1.60;;;;;;;21.60;63.92;100846.12;;;;-57
2020/07/21 13:11:44;;;;;;;2.98;1.80;;;;;;;21.60;63.87;100852.72;;;;-57
2020/07/21 13:14:44;;;;;;;3.21;1.93;;;;;;;21.59;63.85;100846.36;;;;-57
2020/07/21 13:17:44;;;;;;;2.01;1.75;;;;;;;21.60;63.81;100850.52;;;;-57
2020/07/21 13:20:44;;;;;;;2.51;1.81;;;;;;;21.61;63.93;100849.81;;;;-57
2020/07/21 13:23:44;;;;;;;5.72;1.77;;;;;;;21.64;64.04;100850.13;;;;-57
2020/07/21 13:28:43;;;;;;;5.21;1.97;;;;;;;21.66;64.31;100843.52;;;;-56
2020/07/21 13:31:43;;;;;;;3.99;2.11;;;;;;;21.67;64.30;100844.53;;;;-58
2020/07/21 13:34:43;;;;;;;7.52;2.01;;;;;;;21.68;64.21;100841.83;;;;-60
2020/07/21 13:37:43;;;;;;;7.06;2.21;;;;;;;21.70;64.12;100840.20;;;;-57
2020/07/21 13:40:43;;;;;;;10.71;2.21;;;;;;;21.72;64.34;100838.91;;;;-58
2020/07/21 13:43:43;;;;;;;30.85;2.63;;;;;;;21.74;64.46;100840.70;;;;-58
2020/07/21 13:46:43;;;;;;;5.19;1.99;;;;;;;21.75;64.17;100835.58;;;;-58
2020/07/21 13:49:43;;;;;;;13.56;2.23;;;;;;;21.77;64.40;100835.99;;;;-63
2020/07/21 13:52:43;;;;;;;9.43;2.33;;;;;;;21.79;64.48;100834.86;;;;-63
2020/07/21 13:55:43;;;;;;;7.41;2.11;;;;;;;21.80;64.57;100837.37;;;;-60
2020/07/21 13:58:46;;;;;;;9.01;2.17;;;;;;;21.81;64.31;100827.58;;;;-58
2020/07/21 14:01:43;;;;;;;10.54;2.42;;;;;;;21.82;64.39;100833.06;;;;-63
2020/07/21 14:04:43;;;;;;;8.39;2.32;;;;;;;21.82;64.49;100831.34;;;;-62
2020/07/21 14:07:43;;;;;;;6.59;2.22;;;;;;;21.83;64.01;100829.79;;;;-57
2020/07/21 14:10:43;;;;;;;4.11;2.06;;;;;;;21.83;64.08;100816.58;;;;-57
2020/07/21 14:13:43;;;;;;;10.99;2.49;;;;;;;21.84;64.41;100819.69;;;;-58
2020/07/21 14:16:43;;;;;;;5.76;2.17;;;;;;;21.85;64.03;100808.33;;;;-57
2020/07/21 14:19:43;;;;;;;7.23;2.43;;;;;;;21.85;64.11;100812.98;;;;-63
2020/07/21 14:22:43;;;;;;;8.50;2.30;;;;;;;21.85;64.07;100809.47;;;;-56
2020/07/21 14:25:44;;;;;;;7.18;2.40;;;;;;;21.87;64.25;100812.74;;;;-62
2020/07/21 14:28:43;;;;;;;7.70;2.31;;;;;;;21.86;63.72;100813.16;;;;-63
2020/07/21 14:31:43;;;;;;;6.38;2.27;;;;;;;21.86;63.75;100811.53;;;;-60
2020/07/21 14:34:43;;;;;;;12.97;2.37;;;;;;;21.86;63.71;100806.80;;;;-59
2020/07/21 14:37:43;;;;;;;3.97;2.11;;;;;;;21.86;63.61;100810.88;;;;-60
2020/07/21 14:40:43;;;;;;;4.77;2.09;;;;;;;21.85;63.52;100808.11;;;;-64
2020/07/21 14:43:43;;;;;;;9.24;2.43;;;;;;;21.86;63.71;100806.63;;;;-55
2020/07/21 14:46:43;;;;;;;12.17;2.27;;;;;;;21.87;63.51;100801.10;;;;-62
2020/07/21 14:49:43;;;;;;;6.62;2.02;;;;;;;21.86;63.52;100805.25;;;;-57
2020/07/21 14:52:43;;;;;;;4.47;2.15;;;;;;;21.87;63.30;100815.79;;;;-58
2020/07/21 14:55:43;;;;;;;6.23;2.07;;;;;;;21.86;63.42;100808.92;;;;-58
2020/07/21 14:58:43;;;;;;;13.47;2.39;;;;;;;21.87;63.36;100810.87;;;;-59
2020/07/21 15:01:43;;;;;;;5.51;2.31;;;;;;;21.86;63.57;100809.24;;;;-57
2020/07/21 15:04:43;;;;;;;16.12;2.39;;;;;;;21.87;63.65;100804.61;;;;-61
2020/07/21 15:07:43;;;;;;;5.36;2.10;;;;;;;21.88;63.67;100801.99;;;;-61
2020/07/21 15:10:43;;;;;;;4.21;1.83;;;;;;;21.88;63.59;100806.40;;;;-66
2020/07/21 15:13:43;;;;;;;4.99;1.88;;;;;;;21.88;63.73;100805.42;;;;-54
2020/07/21 15:16:43;;;;;;;5.97;2.15;;;;;;;21.89;63.64;100807.06;;;;-67
2020/07/21 15:19:43;;;;;;;9.06;2.30;;;;;;;21.90;63.44;100811.94;;;;-58
2020/07/21 15:22:43;;;;;;;9.37;2.19;;;;;;;21.90;63.33;100805.91;;;;-53
2020/07/21 15:25:43;;;;;;;5.35;1.90;;;;;;;21.90;63.52;100807.38;;;;-54
2020/07/21 15:28:43;;;;;;;7.10;2.07;;;;;;;21.90;63.58;100807.95;;;;-53
2020/07/21 15:31:43;;;;;;;4.01;2.10;;;;;;;21.88;63.56;100806.47;;;;-54
2020/07/21 15:34:44;;;;;;;9.51;2.19;;;;;;;21.88;63.65;100805.66;;;;-53
2020/07/21 15:37:43;;;;;;;7.78;2.09;;;;;;;21.88;63.52;100801.34;;;;-53
2020/07/21 15:40:43;;;;;;;8.07;2.25;;;;;;;21.87;63.56;100798.08;;;;-53
2020/07/21 15:43:43;;;;;;;5.05;2.43;;;;;;;21.87;63.53;100803.77;;;;-60
2020/07/21 15:46:43;;;;;;;4.85;2.23;;;;;;;21.89;63.58;100794.72;;;;-58
2020/07/21 15:49:43;;;;;;;8.11;2.40;;;;;;;21.89;63.56;100790.31;;;;-59
2020/07/21 15:52:43;;;;;;;5.49;2.11;;;;;;;21.87;63.52;100785.35;;;;-59
2020/07/21 15:55:43;;;;;;;5.59;2.01;;;;;;;21.87;63.49;100792.78;;;;-59
2020/07/21 15:58:43;;;;;;;3.77;2.05;;;;;;;21.86;63.49;100784.11;;;;-59
2020/07/21 16:01:43;;;;;;;5.34;1.93;;;;;;;21.85;63.56;100784.94;;;;-59
2020/07/21 16:04:43;;;;;;;6.63;2.22;;;;;;;21.87;63.59;100781.57;;;;-61
2020/07/21 16:07:43;;;;;;;6.45;2.27;;;;;;;21.88;63.63;100783.30;;;;-58
2020/07/21 16:10:43;;;;;;;8.31;2.20;;;;;;;21.90;63.37;100787.30;;;;-56
2020/07/21 16:13:43;;;;;;;4.99;2.23;;;;;;;21.92;63.41;100783.89;;;;-64
2020/07/21 16:16:43;;;;;;;6.23;2.32;;;;;;;21.92;63.40;100782.00;;;;-66
2020/07/21 16:19:43;;;;;;;6.67;2.15;;;;;;;21.94;63.58;100778.73;;;;-54
2020/07/21 16:22:43;;;;;;;7.91;2.21;;;;;;;21.94;63.62;100776.71;;;;-56
2020/07/21 16:25:43;;;;;;;7.82;2.08;;;;;;;21.95;63.60;100781.59;;;;-53
2020/07/21 16:28:43;;;;;;;16.32;2.45;;;;;;;21.96;63.69;100781.60;;;;-53
2020/07/21 16:31:43;;;;;;;12.26;2.48;;;;;;;21.96;63.67;100777.69;;;;-58
2020/07/21 16:34:43;;;;;;;9.25;2.40;;;;;;;21.97;63.56;100772.13;;;;-57
2020/07/21 16:37:43;;;;;;;4.73;2.19;;;;;;;21.98;63.43;100772.14;;;;-57
2020/07/21 16:40:43;;;;;;;5.23;2.46;;;;;;;21.98;63.29;100772.96;;;;-54
2020/07/21 16:43:43;;;;;;;6.76;2.09;;;;;;;21.97;63.51;100772.28;;;;-58
2020/07/21 16:46:43;;;;;;;8.96;2.52;;;;;;;21.98;63.58;100774.99;;;;-60